sensor_id;sensor_type;location;lat;lon;timestamp;P1;durP1;ratioP1;P2;durP2;ratioP2
8663;SDS011;4369;47.842;13.096;2022-08-21T00:00:04;5.40;;;4.90;;
8663;SDS011;4369;47.842;13.096;2022-08-21T00:02:34;5.93;;;5.33;;
8663;SDS011;4369;47.842;13.096;2022-08-21T00:05:01;6.60;;;5.13;;
8663;SDS011;4369;47.842;13.096;2022-08-21T00:07:29;5.70;;;5.10;;
8663;SDS011;4369;47.842;13.096;2022-08-21T00:09:56;5.30;;;4.90;;
8663;SDS011;4369;47.842;13.096;2022-08-21T00:12:23;5.03;;;4.63;;
8663;SDS011;4369;47.842;13.096;2022-08-21T00:14:50;5.37;;;4.90;;
8663;SDS011;4369;47.842;13.096;2022-08-21T00:17:17;5.50;;;5.07;;
8663;SDS011;4369;47.842;13.096;2022-08-21T00:19:45;5.23;;;4.73;;
8663;SDS011;4369;47.842;13.096;2022-08-21T00:22:13;6.77;;;5.30;;
8663;SDS011;4369;47.842;13.096;2022-08-21T00:24:40;4.83;;;4.37;;
8663;SDS011;4369;47.842;13.096;2022-08-21T00:27:07;4.60;;;4.20;;
8663;SDS011;4369;47.842;13.096;2022-08-21T00:29:35;4.27;;;3.90;;
8663;SDS011;4369;47.842;13.096;2022-08-21T00:32:02;6.17;;;4.20;;
8663;SDS011;4369;47.842;13.096;2022-08-21T00:34:29;3.93;;;3.63;;
8663;SDS011;4369;47.842;13.096;2022-08-21T00:36:57;4.47;;;4.07;;
8663;SDS011;4369;47.842;13.096;2022-08-21T00:39:24;3.40;;;2.87;;
8663;SDS011;4369;47.842;13.096;2022-08-21T00:41:51;4.60;;;3.40;;
8663;SDS011;4369;47.842;13.096;2022-08-21T00:44:18;4.10;;;3.80;;
8663;SDS011;4369;47.842;13.096;2022-08-21T00:46:45;3.70;;;3.40;;
8663;SDS011;4369;47.842;13.096;2022-08-21T00:49:12;5.00;;;3.70;;
8663;SDS011;4369;47.842;13.096;2022-08-21T00:51:40;4.17;;;3.67;;
8663;SDS011;4369;47.842;13.096;2022-08-21T00:54:18;4.27;;;3.87;;
8663;SDS011;4369;47.842;13.096;2022-08-21T00:56:50;5.23;;;4.20;;
8663;SDS011;4369;47.842;13.096;2022-08-21T00:59:21;4.53;;;4.17;;
8663;SDS011;4369;47.842;13.096;2022-08-21T01:01:49;5.63;;;3.80;;
8663;SDS011;4369;47.842;13.096;2022-08-21T01:04:17;2.90;;;2.70;;
8663;SDS011;4369;47.842;13.096;2022-08-21T01:06:44;3.80;;;3.50;;
8663;SDS011;4369;47.842;13.096;2022-08-21T01:09:11;3.77;;;3.47;;
8663;SDS011;4369;47.842;13.096;2022-08-21T01:11:40;5.40;;;3.60;;
8663;SDS011;4369;47.842;13.096;2022-08-21T01:14:08;3.27;;;2.97;;
8663;SDS011;4369;47.842;13.096;2022-08-21T01:16:37;3.07;;;2.80;;
8663;SDS011;4369;47.842;13.096;2022-08-21T01:19:05;3.83;;;3.17;;
8663;SDS011;4369;47.842;13.096;2022-08-21T01:21:35;3.80;;;2.90;;
8663;SDS011;4369;47.842;13.096;2022-08-21T01:24:02;3.57;;;3.27;;
8663;SDS011;4369;47.842;13.096;2022-08-21T01:26:31;3.93;;;3.07;;
8663;SDS011;4369;47.842;13.096;2022-08-21T01:29:05;3.77;;;3.03;;
8663;SDS011;4369;47.842;13.096;2022-08-21T01:31:37;4.00;;;3.70;;
8663;SDS011;4369;47.842;13.096;2022-08-21T01:34:05;3.77;;;3.47;;
8663;SDS011;4369;47.842;13.096;2022-08-21T01:36:32;3.83;;;3.37;;
8663;SDS011;4369;47.842;13.096;2022-08-21T01:39:01;3.53;;;3.23;;
8663;SDS011;4369;47.842;13.096;2022-08-21T01:41:29;4.93;;;3.60;;
8663;SDS011;4369;47.842;13.096;2022-08-21T01:43:56;3.13;;;2.90;;
8663;SDS011;4369;47.842;13.096;2022-08-21T01:46:23;3.93;;;2.87;;
8663;SDS011;4369;47.842;13.096;2022-08-21T01:48:50;3.30;;;3.00;;
8663;SDS011;4369;47.842;13.096;2022-08-21T01:51:17;3.43;;;3.13;;
8663;SDS011;4369;47.842;13.096;2022-08-21T01:53:44;3.40;;;3.10;;
8663;SDS011;4369;47.842;13.096;2022-08-21T01:56:14;3.07;;;2.87;;
8663;SDS011;4369;47.842;13.096;2022-08-21T01:58:42;5.07;;;3.17;;
8663;SDS011;4369;47.842;13.096;2022-08-21T02:01:11;4.07;;;3.17;;
8663;SDS011;4369;47.842;13.096;2022-08-21T02:03:39;3.53;;;3.23;;
8663;SDS011;4369;47.842;13.096;2022-08-21T02:06:06;3.47;;;3.00;;
8663;SDS011;4369;47.842;13.096;2022-08-21T02:08:38;3.67;;;2.93;;
8663;SDS011;4369;47.842;13.096;2022-08-21T02:11:05;3.37;;;3.07;;
8663;SDS011;4369;47.842;13.096;2022-08-21T02:13:33;3.83;;;3.30;;
8663;SDS011;4369;47.842;13.096;2022-08-21T02:16:00;3.20;;;2.90;;
8663;SDS011;4369;47.842;13.096;2022-08-21T02:18:27;3.93;;;2.87;;
8663;SDS011;4369;47.842;13.096;2022-08-21T02:20:54;2.37;;;2.17;;
8663;SDS011;4369;47.842;13.096;2022-08-21T02:23:23;2.50;;;2.30;;
8663;SDS011;4369;47.842;13.096;2022-08-21T02:25:50;2.90;;;2.30;;
8663;SDS011;4369;47.842;13.096;2022-08-21T02:28:17;2.20;;;2.10;;
8663;SDS011;4369;47.842;13.096;2022-08-21T02:30:46;2.63;;;2.03;;
8663;SDS011;4369;47.842;13.096;2022-08-21T02:33:13;4.27;;;2.40;;
8663;SDS011;4369;47.842;13.096;2022-08-21T02:35:41;3.00;;;2.50;;
8663;SDS011;4369;47.842;13.096;2022-08-21T02:38:10;2.20;;;2.00;;
8663;SDS011;4369;47.842;13.096;2022-08-21T02:40:41;2.10;;;2.00;;
8663;SDS011;4369;47.842;13.096;2022-08-21T02:43:09;2.40;;;2.20;;
8663;SDS011;4369;47.842;13.096;2022-08-21T02:45:37;2.80;;;2.40;;
8663;SDS011;4369;47.842;13.096;2022-08-21T02:48:06;2.87;;;2.67;;
8663;SDS011;4369;47.842;13.096;2022-08-21T02:50:36;2.90;;;2.33;;
8663;SDS011;4369;47.842;13.096;2022-08-21T02:53:04;2.80;;;2.60;;
8663;SDS011;4369;47.842;13.096;2022-08-21T02:55:33;2.80;;;2.60;;
8663;SDS011;4369;47.842;13.096;2022-08-21T02:58:01;2.77;;;2.57;;
8663;SDS011;4369;47.842;13.096;2022-08-21T03:00:29;2.67;;;2.47;;
8663;SDS011;4369;47.842;13.096;2022-08-21T03:02:57;2.60;;;2.33;;
8663;SDS011;4369;47.842;13.096;2022-08-21T03:05:27;2.70;;;2.50;;
8663;SDS011;4369;47.842;13.096;2022-08-21T03:07:56;2.80;;;2.60;;
8663;SDS011;4369;47.842;13.096;2022-08-21T03:10:24;3.57;;;2.90;;
8663;SDS011;4369;47.842;13.096;2022-08-21T03:12:51;2.53;;;2.33;;
8663;SDS011;4369;47.842;13.096;2022-08-21T03:15:20;3.00;;;2.73;;
8663;SDS011;4369;47.842;13.096;2022-08-21T03:17:48;2.73;;;2.53;;
8663;SDS011;4369;47.842;13.096;2022-08-21T03:20:18;2.40;;;2.20;;
8663;SDS011;4369;47.842;13.096;2022-08-21T03:22:49;3.30;;;3.10;;
8663;SDS011;4369;47.842;13.096;2022-08-21T03:25:16;3.57;;;3.37;;
8663;SDS011;4369;47.842;13.096;2022-08-21T03:27:43;3.00;;;2.80;;
8663;SDS011;4369;47.842;13.096;2022-08-21T03:30:11;2.70;;;2.50;;
8663;SDS011;4369;47.842;13.096;2022-08-21T03:32:38;5.63;;;2.77;;
8663;SDS011;4369;47.842;13.096;2022-08-21T03:35:06;2.73;;;2.50;;
8663;SDS011;4369;47.842;13.096;2022-08-21T03:37:34;2.83;;;2.63;;
8663;SDS011;4369;47.842;13.096;2022-08-21T03:40:03;2.97;;;2.73;;
8663;SDS011;4369;47.842;13.096;2022-08-21T03:42:31;3.00;;;2.77;;
8663;SDS011;4369;47.842;13.096;2022-08-21T03:44:58;2.80;;;2.60;;
8663;SDS011;4369;47.842;13.096;2022-08-21T03:47:25;2.33;;;2.23;;
8663;SDS011;4369;47.842;13.096;2022-08-21T03:49:52;2.30;;;2.10;;
8663;SDS011;4369;47.842;13.096;2022-08-21T03:52:19;2.47;;;2.27;;
8663;SDS011;4369;47.842;13.096;2022-08-21T03:54:46;2.50;;;2.30;;
8663;SDS011;4369;47.842;13.096;2022-08-21T03:57:14;3.23;;;2.60;;
8663;SDS011;4369;47.842;13.096;2022-08-21T03:59:42;3.00;;;2.70;;
8663;SDS011;4369;47.842;13.096;2022-08-21T04:02:09;2.63;;;2.43;;
8663;SDS011;4369;47.842;13.096;2022-08-21T04:04:36;2.30;;;2.20;;
8663;SDS011;4369;47.842;13.096;2022-08-21T04:07:03;4.33;;;2.77;;
8663;SDS011;4369;47.842;13.096;2022-08-21T04:09:30;2.70;;;2.50;;
8663;SDS011;4369;47.842;13.096;2022-08-21T04:11:57;2.57;;;2.37;;
8663;SDS011;4369;47.842;13.096;2022-08-21T04:14:27;2.70;;;2.50;;
8663;SDS011;4369;47.842;13.096;2022-08-21T04:16:54;2.40;;;2.30;;
8663;SDS011;4369;47.842;13.096;2022-08-21T04:19:20;2.30;;;2.10;;
8663;SDS011;4369;47.842;13.096;2022-08-21T04:21:48;2.63;;;2.43;;
8663;SDS011;4369;47.842;13.096;2022-08-21T04:24:15;2.93;;;2.60;;
8663;SDS011;4369;47.842;13.096;2022-08-21T04:26:42;2.80;;;2.60;;
8663;SDS011;4369;47.842;13.096;2022-08-21T04:29:09;2.47;;;2.37;;
8663;SDS011;4369;47.842;13.096;2022-08-21T04:31:37;2.57;;;2.37;;
8663;SDS011;4369;47.842;13.096;2022-08-21T04:34:04;2.63;;;2.47;;
8663;SDS011;4369;47.842;13.096;2022-08-21T04:36:31;2.87;;;2.53;;
8663;SDS011;4369;47.842;13.096;2022-08-21T04:38:58;2.53;;;2.37;;
8663;SDS011;4369;47.842;13.096;2022-08-21T04:41:25;2.47;;;2.30;;
8663;SDS011;4369;47.842;13.096;2022-08-21T04:43:52;3.10;;;2.70;;
8663;SDS011;4369;47.842;13.096;2022-08-21T04:46:20;2.33;;;2.23;;
8663;SDS011;4369;47.842;13.096;2022-08-21T04:48:48;2.50;;;2.30;;
8663;SDS011;4369;47.842;13.096;2022-08-21T04:51:16;2.70;;;2.50;;
8663;SDS011;4369;47.842;13.096;2022-08-21T04:53:47;3.67;;;2.70;;
8663;SDS011;4369;47.842;13.096;2022-08-21T04:56:19;2.90;;;2.60;;
8663;SDS011;4369;47.842;13.096;2022-08-21T04:58:48;3.87;;;2.70;;
8663;SDS011;4369;47.842;13.096;2022-08-21T05:01:19;3.30;;;2.60;;
8663;SDS011;4369;47.842;13.096;2022-08-21T05:03:50;3.60;;;2.50;;
8663;SDS011;4369;47.842;13.096;2022-08-21T05:06:21;4.30;;;3.10;;
8663;SDS011;4369;47.842;13.096;2022-08-21T05:08:50;2.97;;;2.67;;
8663;SDS011;4369;47.842;13.096;2022-08-21T05:11:20;3.20;;;2.73;;
8663;SDS011;4369;47.842;13.096;2022-08-21T05:13:47;2.93;;;2.50;;
8663;SDS011;4369;47.842;13.096;2022-08-21T05:16:14;2.70;;;2.50;;
8663;SDS011;4369;47.842;13.096;2022-08-21T05:18:42;3.10;;;2.73;;
8663;SDS011;4369;47.842;13.096;2022-08-21T05:21:10;3.10;;;2.80;;
8663;SDS011;4369;47.842;13.096;2022-08-21T05:23:37;4.67;;;3.33;;
8663;SDS011;4369;47.842;13.096;2022-08-21T05:26:04;5.03;;;3.60;;
8663;SDS011;4369;47.842;13.096;2022-08-21T05:28:31;3.80;;;3.27;;
8663;SDS011;4369;47.842;13.096;2022-08-21T05:30:58;4.20;;;3.60;;
8663;SDS011;4369;47.842;13.096;2022-08-21T05:33:25;3.60;;;3.30;;
8663;SDS011;4369;47.842;13.096;2022-08-21T05:35:52;3.73;;;3.47;;
8663;SDS011;4369;47.842;13.096;2022-08-21T05:38:23;4.80;;;3.60;;
8663;SDS011;4369;47.842;13.096;2022-08-21T05:40:52;3.70;;;3.40;;
8663;SDS011;4369;47.842;13.096;2022-08-21T05:43:19;4.50;;;3.60;;
8663;SDS011;4369;47.842;13.096;2022-08-21T05:45:46;3.60;;;3.30;;
8663;SDS011;4369;47.842;13.096;2022-08-21T05:48:14;4.27;;;3.40;;
8663;SDS011;4369;47.842;13.096;2022-08-21T05:50:43;8.23;;;3.40;;
8663;SDS011;4369;47.842;13.096;2022-08-21T05:53:11;4.60;;;3.47;;
8663;SDS011;4369;47.842;13.096;2022-08-21T05:55:42;3.20;;;2.97;;
8663;SDS011;4369;47.842;13.096;2022-08-21T05:58:10;4.47;;;3.53;;
8663;SDS011;4369;47.842;13.096;2022-08-21T06:00:38;4.00;;;3.67;;
8663;SDS011;4369;47.842;13.096;2022-08-21T06:03:10;3.07;;;2.77;;
8663;SDS011;4369;47.842;13.096;2022-08-21T06:05:38;5.07;;;3.20;;
8663;SDS011;4369;47.842;13.096;2022-08-21T06:08:05;3.93;;;2.90;;
8663;SDS011;4369;47.842;13.096;2022-08-21T06:10:31;3.90;;;3.60;;
8663;SDS011;4369;47.842;13.096;2022-08-21T06:13:00;3.63;;;3.30;;
8663;SDS011;4369;47.842;13.096;2022-08-21T06:15:27;3.63;;;3.27;;
8663;SDS011;4369;47.842;13.096;2022-08-21T06:17:53;4.33;;;3.37;;
8663;SDS011;4369;47.842;13.096;2022-08-21T06:20:20;5.40;;;3.47;;
8663;SDS011;4369;47.842;13.096;2022-08-21T06:22:48;3.53;;;3.23;;
8663;SDS011;4369;47.842;13.096;2022-08-21T06:25:15;3.40;;;3.10;;
8663;SDS011;4369;47.842;13.096;2022-08-21T06:27:42;4.27;;;3.20;;
8663;SDS011;4369;47.842;13.096;2022-08-21T06:30:10;3.63;;;3.33;;
8663;SDS011;4369;47.842;13.096;2022-08-21T06:32:37;4.97;;;3.43;;
8663;SDS011;4369;47.842;13.096;2022-08-21T06:35:05;3.70;;;3.40;;
8663;SDS011;4369;47.842;13.096;2022-08-21T06:37:32;4.30;;;3.93;;
8663;SDS011;4369;47.842;13.096;2022-08-21T06:39:59;5.23;;;3.70;;
8663;SDS011;4369;47.842;13.096;2022-08-21T06:42:27;4.33;;;3.70;;
8663;SDS011;4369;47.842;13.096;2022-08-21T06:44:56;3.57;;;3.17;;
8663;SDS011;4369;47.842;13.096;2022-08-21T06:47:24;5.50;;;3.53;;
8663;SDS011;4369;47.842;13.096;2022-08-21T06:49:51;5.30;;;3.77;;
8663;SDS011;4369;47.842;13.096;2022-08-21T06:52:19;4.57;;;4.10;;
8663;SDS011;4369;47.842;13.096;2022-08-21T06:54:46;3.73;;;3.43;;
8663;SDS011;4369;47.842;13.096;2022-08-21T06:57:18;3.83;;;3.53;;
8663;SDS011;4369;47.842;13.096;2022-08-21T06:59:47;3.90;;;3.60;;
8663;SDS011;4369;47.842;13.096;2022-08-21T07:02:15;5.37;;;3.80;;
8663;SDS011;4369;47.842;13.096;2022-08-21T07:04:43;4.93;;;3.93;;
8663;SDS011;4369;47.842;13.096;2022-08-21T07:07:13;5.13;;;3.90;;
8663;SDS011;4369;47.842;13.096;2022-08-21T07:09:40;4.30;;;3.90;;
8663;SDS011;4369;47.842;13.096;2022-08-21T07:12:07;4.03;;;3.47;;
8663;SDS011;4369;47.842;13.096;2022-08-21T07:14:34;4.20;;;3.10;;
8663;SDS011;4369;47.842;13.096;2022-08-21T07:17:01;3.87;;;3.57;;
8663;SDS011;4369;47.842;13.096;2022-08-21T07:19:28;4.13;;;3.77;;
8663;SDS011;4369;47.842;13.096;2022-08-21T07:21:57;3.40;;;3.20;;
8663;SDS011;4369;47.842;13.096;2022-08-21T07:24:26;4.13;;;3.63;;
8663;SDS011;4369;47.842;13.096;2022-08-21T07:26:54;3.30;;;3.10;;
8663;SDS011;4369;47.842;13.096;2022-08-21T07:29:21;3.53;;;3.00;;
8663;SDS011;4369;47.842;13.096;2022-08-21T07:31:48;3.27;;;2.90;;
8663;SDS011;4369;47.842;13.096;2022-08-21T07:34:15;2.93;;;2.67;;
8663;SDS011;4369;47.842;13.096;2022-08-21T07:36:42;3.33;;;3.00;;
8663;SDS011;4369;47.842;13.096;2022-08-21T07:39:10;2.77;;;2.60;;
8663;SDS011;4369;47.842;13.096;2022-08-21T07:41:37;3.13;;;2.83;;
8663;SDS011;4369;47.842;13.096;2022-08-21T07:44:04;3.17;;;2.87;;
8663;SDS011;4369;47.842;13.096;2022-08-21T07:46:31;2.90;;;2.70;;
8663;SDS011;4369;47.842;13.096;2022-08-21T07:48:58;2.90;;;2.60;;
8663;SDS011;4369;47.842;13.096;2022-08-21T07:51:25;3.27;;;2.80;;
8663;SDS011;4369;47.842;13.096;2022-08-21T07:53:54;3.30;;;3.00;;
8663;SDS011;4369;47.842;13.096;2022-08-21T07:56:29;3.33;;;3.03;;
8663;SDS011;4369;47.842;13.096;2022-08-21T07:58:57;4.23;;;3.30;;
8663;SDS011;4369;47.842;13.096;2022-08-21T08:01:24;3.43;;;2.70;;
8663;SDS011;4369;47.842;13.096;2022-08-21T08:03:51;4.07;;;2.70;;
8663;SDS011;4369;47.842;13.096;2022-08-21T08:06:18;3.43;;;3.13;;
8663;SDS011;4369;47.842;13.096;2022-08-21T08:08:45;4.00;;;3.00;;
8663;SDS011;4369;47.842;13.096;2022-08-21T08:11:12;3.27;;;3.03;;
8663;SDS011;4369;47.842;13.096;2022-08-21T08:13:43;6.20;;;3.03;;
8663;SDS011;4369;47.842;13.096;2022-08-21T08:16:12;3.23;;;2.80;;
8663;SDS011;4369;47.842;13.096;2022-08-21T08:18:39;5.57;;;3.63;;
8663;SDS011;4369;47.842;13.096;2022-08-21T08:21:07;4.20;;;3.27;;
8663;SDS011;4369;47.842;13.096;2022-08-21T08:23:35;3.30;;;3.10;;
8663;SDS011;4369;47.842;13.096;2022-08-21T08:26:02;3.27;;;3.00;;
8663;SDS011;4369;47.842;13.096;2022-08-21T08:28:29;5.83;;;3.53;;
8663;SDS011;4369;47.842;13.096;2022-08-21T08:30:58;13.07;;;8.63;;
8663;SDS011;4369;47.842;13.096;2022-08-21T08:33:26;14.30;;;9.53;;
8663;SDS011;4369;47.842;13.096;2022-08-21T08:35:53;4.60;;;4.10;;
8663;SDS011;4369;47.842;13.096;2022-08-21T08:38:21;3.70;;;3.40;;
8663;SDS011;4369;47.842;13.096;2022-08-21T08:40:51;3.30;;;3.00;;
8663;SDS011;4369;47.842;13.096;2022-08-21T08:43:25;4.93;;;3.27;;
8663;SDS011;4369;47.842;13.096;2022-08-21T08:45:53;3.47;;;3.17;;
8663;SDS011;4369;47.842;13.096;2022-08-21T08:48:30;3.50;;;3.30;;
8663;SDS011;4369;47.842;13.096;2022-08-21T08:51:06;3.20;;;2.90;;
8663;SDS011;4369;47.842;13.096;2022-08-21T08:53:42;5.17;;;3.50;;
8663;SDS011;4369;47.842;13.096;2022-08-21T08:56:15;5.90;;;3.50;;
8663;SDS011;4369;47.842;13.096;2022-08-21T08:58:48;4.43;;;3.50;;
8663;SDS011;4369;47.842;13.096;2022-08-21T09:01:18;3.60;;;3.20;;
8663;SDS011;4369;47.842;13.096;2022-08-21T09:03:47;4.43;;;4.03;;
8663;SDS011;4369;47.842;13.096;2022-08-21T09:06:19;3.80;;;3.50;;
8663;SDS011;4369;47.842;13.096;2022-08-21T09:09:06;5.57;;;4.00;;
8663;SDS011;4369;47.842;13.096;2022-08-21T09:11:44;4.13;;;3.60;;
8663;SDS011;4369;47.842;13.096;2022-08-21T09:14:21;3.87;;;3.57;;
8663;SDS011;4369;47.842;13.096;2022-08-21T09:16:55;4.00;;;3.70;;
8663;SDS011;4369;47.842;13.096;2022-08-21T09:19:36;4.10;;;3.80;;
8663;SDS011;4369;47.842;13.096;2022-08-21T09:22:19;4.97;;;3.90;;
8663;SDS011;4369;47.842;13.096;2022-08-21T09:25:03;4.00;;;3.70;;
8663;SDS011;4369;47.842;13.096;2022-08-21T09:27:36;4.13;;;3.83;;
8663;SDS011;4369;47.842;13.096;2022-08-21T09:30:05;4.10;;;3.70;;
8663;SDS011;4369;47.842;13.096;2022-08-21T09:32:34;4.47;;;4.07;;
8663;SDS011;4369;47.842;13.096;2022-08-21T09:35:06;3.97;;;3.60;;
8663;SDS011;4369;47.842;13.096;2022-08-21T09:37:44;4.10;;;3.73;;
8663;SDS011;4369;47.842;13.096;2022-08-21T09:40:15;6.03;;;3.90;;
8663;SDS011;4369;47.842;13.096;2022-08-21T09:42:53;3.67;;;3.30;;
8663;SDS011;4369;47.842;13.096;2022-08-21T09:45:22;3.73;;;3.43;;
8663;SDS011;4369;47.842;13.096;2022-08-21T09:47:49;3.50;;;3.20;;
8663;SDS011;4369;47.842;13.096;2022-08-21T09:50:19;5.73;;;3.67;;
8663;SDS011;4369;47.842;13.096;2022-08-21T09:52:49;3.83;;;3.47;;
8663;SDS011;4369;47.842;13.096;2022-08-21T09:55:20;5.07;;;3.40;;
8663;SDS011;4369;47.842;13.096;2022-08-21T09:58:13;3.47;;;3.20;;
8663;SDS011;4369;47.842;13.096;2022-08-21T10:00:41;4.50;;;3.10;;
8663;SDS011;4369;47.842;13.096;2022-08-21T10:03:09;4.63;;;3.20;;
8663;SDS011;4369;47.842;13.096;2022-08-21T10:05:49;3.57;;;3.20;;
8663;SDS011;4369;47.842;13.096;2022-08-21T10:08:22;3.43;;;3.13;;
8663;SDS011;4369;47.842;13.096;2022-08-21T10:10:51;3.63;;;3.20;;
8663;SDS011;4369;47.842;13.096;2022-08-21T10:13:24;5.07;;;3.63;;
8663;SDS011;4369;47.842;13.096;2022-08-21T10:16:03;3.10;;;2.90;;
8663;SDS011;4369;47.842;13.096;2022-08-21T10:18:42;4.00;;;3.20;;
8663;SDS011;4369;47.842;13.096;2022-08-21T10:21:17;4.17;;;3.30;;
8663;SDS011;4369;47.842;13.096;2022-08-21T10:23:51;4.97;;;3.23;;
8663;SDS011;4369;47.842;13.096;2022-08-21T10:26:27;3.40;;;3.10;;
8663;SDS011;4369;47.842;13.096;2022-08-21T10:29:03;4.30;;;3.30;;
8663;SDS011;4369;47.842;13.096;2022-08-21T10:31:37;5.43;;;3.47;;
8663;SDS011;4369;47.842;13.096;2022-08-21T10:34:22;3.60;;;3.30;;
8663;SDS011;4369;47.842;13.096;2022-08-21T10:37:07;4.47;;;3.73;;
8663;SDS011;4369;47.842;13.096;2022-08-21T10:39:57;3.37;;;3.07;;
8663;SDS011;4369;47.842;13.096;2022-08-21T10:42:34;3.73;;;3.33;;
8663;SDS011;4369;47.842;13.096;2022-08-21T10:45:09;3.50;;;3.13;;
8663;SDS011;4369;47.842;13.096;2022-08-21T10:47:42;3.70;;;3.40;;
8663;SDS011;4369;47.842;13.096;2022-08-21T10:50:17;4.13;;;3.70;;
8663;SDS011;4369;47.842;13.096;2022-08-21T10:53:01;4.17;;;3.77;;
8663;SDS011;4369;47.842;13.096;2022-08-21T10:55:48;4.03;;;3.63;;
8663;SDS011;4369;47.842;13.096;2022-08-21T10:58:25;5.30;;;3.53;;
8663;SDS011;4369;47.842;13.096;2022-08-21T11:00:56;3.90;;;3.50;;
8663;SDS011;4369;47.842;13.096;2022-08-21T11:03:29;3.80;;;3.50;;
8663;SDS011;4369;47.842;13.096;2022-08-21T11:06:00;6.80;;;3.60;;
8663;SDS011;4369;47.842;13.096;2022-08-21T11:08:35;5.60;;;4.00;;
8663;SDS011;4369;47.842;13.096;2022-08-21T11:11:06;3.73;;;3.43;;
8663;SDS011;4369;47.842;13.096;2022-08-21T11:13:39;3.70;;;3.40;;
8663;SDS011;4369;47.842;13.096;2022-08-21T11:16:16;3.73;;;3.43;;
8663;SDS011;4369;47.842;13.096;2022-08-21T11:18:49;4.13;;;3.83;;
8663;SDS011;4369;47.842;13.096;2022-08-21T11:21:27;4.00;;;3.70;;
8663;SDS011;4369;47.842;13.096;2022-08-21T11:24:03;5.30;;;3.87;;
8663;SDS011;4369;47.842;13.096;2022-08-21T11:26:51;6.17;;;4.17;;
8663;SDS011;4369;47.842;13.096;2022-08-21T11:29:24;4.13;;;3.83;;
8663;SDS011;4369;47.842;13.096;2022-08-21T11:32:01;4.30;;;3.90;;
8663;SDS011;4369;47.842;13.096;2022-08-21T11:34:46;4.97;;;3.77;;
8663;SDS011;4369;47.842;13.096;2022-08-21T11:37:23;5.37;;;3.90;;
8663;SDS011;4369;47.842;13.096;2022-08-21T11:40:03;4.53;;;4.13;;
8663;SDS011;4369;47.842;13.096;2022-08-21T11:42:37;4.43;;;4.03;;
8663;SDS011;4369;47.842;13.096;2022-08-21T11:45:14;3.90;;;3.50;;
8663;SDS011;4369;47.842;13.096;2022-08-21T11:47:54;3.97;;;3.57;;
8663;SDS011;4369;47.842;13.096;2022-08-21T11:50:29;4.10;;;3.80;;
8663;SDS011;4369;47.842;13.096;2022-08-21T11:52:59;5.03;;;4.03;;
8663;SDS011;4369;47.842;13.096;2022-08-21T11:55:32;5.43;;;3.70;;
8663;SDS011;4369;47.842;13.096;2022-08-21T11:58:04;3.43;;;3.23;;
8663;SDS011;4369;47.842;13.096;2022-08-21T12:00:35;5.00;;;4.60;;
8663;SDS011;4369;47.842;13.096;2022-08-21T12:03:07;3.90;;;3.60;;
8663;SDS011;4369;47.842;13.096;2022-08-21T12:05:39;3.88;;;3.58;;
8663;SDS011;4369;47.842;13.096;2022-08-21T12:08:11;4.10;;;3.80;;
8663;SDS011;4369;47.842;13.096;2022-08-21T12:10:41;4.77;;;3.60;;
8663;SDS011;4369;47.842;13.096;2022-08-21T12:13:22;3.63;;;3.33;;
8663;SDS011;4369;47.842;13.096;2022-08-21T12:19:13;4.25;;;3.85;;
8663;SDS011;4369;47.842;13.096;2022-08-21T12:21:58;3.65;;;3.45;;
8663;SDS011;4369;47.842;13.096;2022-08-21T12:24:35;3.78;;;3.47;;
8663;SDS011;4369;47.842;13.096;2022-08-21T12:27:17;4.10;;;3.25;;
8663;SDS011;4369;47.842;13.096;2022-08-21T12:29:51;4.32;;;3.60;;
8663;SDS011;4369;47.842;13.096;2022-08-21T12:32:22;3.58;;;3.30;;
8663;SDS011;4369;47.842;13.096;2022-08-21T12:34:52;4.10;;;3.80;;
8663;SDS011;4369;47.842;13.096;2022-08-21T12:37:24;3.70;;;3.40;;
8663;SDS011;4369;47.842;13.096;2022-08-21T12:40:00;3.85;;;3.53;;
8663;SDS011;4369;47.842;13.096;2022-08-21T12:42:31;3.93;;;3.63;;
8663;SDS011;4369;47.842;13.096;2022-08-21T12:45:04;3.40;;;3.20;;
8663;SDS011;4369;47.842;13.096;2022-08-21T12:47:43;4.03;;;3.67;;
8663;SDS011;4369;47.842;13.096;2022-08-21T12:50:15;3.97;;;3.67;;
8663;SDS011;4369;47.842;13.096;2022-08-21T12:52:48;4.57;;;3.47;;
8663;SDS011;4369;47.842;13.096;2022-08-21T12:55:25;3.85;;;3.55;;
8663;SDS011;4369;47.842;13.096;2022-08-21T12:57:54;3.47;;;3.25;;
8663;SDS011;4369;47.842;13.096;2022-08-21T13:00:22;3.70;;;3.40;;
8663;SDS011;4369;47.842;13.096;2022-08-21T13:02:50;3.33;;;3.13;;
8663;SDS011;4369;47.842;13.096;2022-08-21T13:05:23;3.40;;;3.10;;
8663;SDS011;4369;47.842;13.096;2022-08-21T13:07:54;2.90;;;2.70;;
8663;SDS011;4369;47.842;13.096;2022-08-21T13:10:23;3.28;;;2.97;;
8663;SDS011;4369;47.842;13.096;2022-08-21T13:12:53;3.05;;;2.70;;
8663;SDS011;4369;47.842;13.096;2022-08-21T13:15:25;2.90;;;2.70;;
8663;SDS011;4369;47.842;13.096;2022-08-21T13:17:54;3.05;;;2.85;;
8663;SDS011;4369;47.842;13.096;2022-08-21T13:20:27;2.90;;;2.70;;
8663;SDS011;4369;47.842;13.096;2022-08-21T13:22:56;2.85;;;2.60;;
8663;SDS011;4369;47.842;13.096;2022-08-21T13:25:26;2.92;;;2.72;;
8663;SDS011;4369;47.842;13.096;2022-08-21T13:27:59;4.53;;;2.60;;
8663;SDS011;4369;47.842;13.096;2022-08-21T13:30:31;2.70;;;2.50;;
8663;SDS011;4369;47.842;13.096;2022-08-21T13:32:59;2.75;;;2.55;;
8663;SDS011;4369;47.842;13.096;2022-08-21T13:35:30;2.30;;;2.10;;
8663;SDS011;4369;47.842;13.096;2022-08-21T13:38:03;2.08;;;1.98;;
8663;SDS011;4369;47.842;13.096;2022-08-21T13:40:32;2.05;;;1.95;;
8663;SDS011;4369;47.842;13.096;2022-08-21T13:43:12;2.55;;;2.45;;
8663;SDS011;4369;47.842;13.096;2022-08-21T13:45:43;2.42;;;2.22;;
8663;SDS011;4369;47.842;13.096;2022-08-21T13:48:11;2.40;;;2.30;;
8663;SDS011;4369;47.842;13.096;2022-08-21T13:50:39;2.70;;;2.42;;
8663;SDS011;4369;47.842;13.096;2022-08-21T13:53:18;2.30;;;2.20;;
8663;SDS011;4369;47.842;13.096;2022-08-21T13:55:48;2.50;;;2.40;;
8663;SDS011;4369;47.842;13.096;2022-08-21T13:58:25;3.08;;;2.88;;
8663;SDS011;4369;47.842;13.096;2022-08-21T14:00:53;2.80;;;2.70;;
8663;SDS011;4369;47.842;13.096;2022-08-21T14:03:29;3.03;;;2.72;;
8663;SDS011;4369;47.842;13.096;2022-08-21T14:05:59;3.95;;;2.85;;
8663;SDS011;4369;47.842;13.096;2022-08-21T14:08:27;3.10;;;2.90;;
8663;SDS011;4369;47.842;13.096;2022-08-21T14:10:58;4.28;;;3.60;;
8663;SDS011;4369;47.842;13.096;2022-08-21T14:13:34;5.20;;;3.67;;
8663;SDS011;4369;47.842;13.096;2022-08-21T14:16:10;4.95;;;4.28;;
8663;SDS011;4369;47.842;13.096;2022-08-21T14:18:43;4.43;;;4.13;;
8663;SDS011;4369;47.842;13.096;2022-08-21T14:21:12;4.55;;;4.15;;
8663;SDS011;4369;47.842;13.096;2022-08-21T14:23:39;4.82;;;4.20;;
8663;SDS011;4369;47.842;13.096;2022-08-21T14:26:06;3.83;;;3.53;;
8663;SDS011;4369;47.842;13.096;2022-08-21T14:28:37;3.78;;;3.42;;
8663;SDS011;4369;47.842;13.096;2022-08-21T14:31:10;3.60;;;3.30;;
8663;SDS011;4369;47.842;13.096;2022-08-21T14:33:39;3.83;;;3.08;;
8663;SDS011;4369;47.842;13.096;2022-08-21T14:36:06;3.50;;;3.20;;
8663;SDS011;4369;47.842;13.096;2022-08-21T14:38:35;3.35;;;3.08;;
8663;SDS011;4369;47.842;13.096;2022-08-21T14:41:05;3.45;;;3.17;;
8663;SDS011;4369;47.842;13.096;2022-08-21T14:43:38;4.32;;;3.20;;
8663;SDS011;4369;47.842;13.096;2022-08-21T14:46:05;3.67;;;3.40;;
8663;SDS011;4369;47.842;13.096;2022-08-21T14:48:32;4.93;;;3.13;;
8663;SDS011;4369;47.842;13.096;2022-08-21T14:50:59;3.08;;;2.88;;
8663;SDS011;4369;47.842;13.096;2022-08-21T14:53:26;3.60;;;3.30;;
8663;SDS011;4369;47.842;13.096;2022-08-21T14:55:53;3.35;;;3.15;;
8663;SDS011;4369;47.842;13.096;2022-08-21T14:58:32;2.97;;;2.60;;
8663;SDS011;4369;47.842;13.096;2022-08-21T15:01:02;3.05;;;2.85;;
8663;SDS011;4369;47.842;13.096;2022-08-21T15:03:30;3.05;;;2.72;;
8663;SDS011;4369;47.842;13.096;2022-08-21T15:05:57;2.80;;;2.60;;
8663;SDS011;4369;47.842;13.096;2022-08-21T15:08:24;2.67;;;2.58;;
8663;SDS011;4369;47.842;13.096;2022-08-21T15:10:51;3.13;;;2.92;;
8663;SDS011;4369;47.842;13.096;2022-08-21T15:13:19;3.72;;;2.70;;
8663;SDS011;4369;47.842;13.096;2022-08-21T15:15:47;2.80;;;2.42;;
8663;SDS011;4369;47.842;13.096;2022-08-21T15:18:19;2.78;;;2.67;;
8663;SDS011;4369;47.842;13.096;2022-08-21T15:20:45;2.92;;;2.72;;